Time;durP1;ratioP1;P1;durP2;ratioP2;P2;SDS_P1;SDS_P2;PMS_P1;PMS_P2;Temp;Humidity;BMP_temperature;BMP_pressure;BME280_temperature;BME280_humidity;BME280_pressure;Samples;Min_cycle;Max_cycle;Signal;HPM_P1;HPM_P2
2022/06/12 00:02:21;;;;;;;3.28;1.67;;;;;;;17.73;100.00;101162.97;6227064;28;20053;-88
2022/06/12 00:05:26;;;;;;;8.25;2.05;;;;;;;17.70;100.00;101165.88;6228129;28;20132;-88
2022/06/12 00:08:31;;;;;;;3.33;1.83;;;;;;;17.64;100.00;101164.72;6255479;28;20056;-88
2022/06/12 00:11:34;;;;;;;4.30;1.90;;;;;;;17.58;100.00;101160.06;6253315;28;20503;-88
2022/06/12 00:14:37;;;;;;;6.85;2.05;;;;;;;17.55;100.00;101164.78;6254475;28;20056;-88
2022/06/12 00:17:41;;;;;;;7.20;2.42;;;;;;;17.52;98.01;101173.78;6255124;28;20061;-87
2022/06/12 00:20:43;;;;;;;5.70;2.22;;;;;;;17.49;98.94;101174.06;6254486;28;20038;-88
2022/06/12 00:23:57;;;;;;;6.78;2.65;;;;;;;17.41;97.77;101166.94;6245031;28;20049;-88
2022/06/12 00:27:00;;;;;;;5.15;2.17;;;;;;;17.37;99.75;101177.91;6227395;28;20047;-88
2022/06/12 00:30:05;;;;;;;3.75;1.85;;;;;;;17.36;98.04;101189.31;6251239;28;20052;-87
2022/06/12 00:33:07;;;;;;;6.82;2.20;;;;;;;17.50;92.05;101177.50;6238058;28;20541;-88
2022/06/12 00:36:09;;;;;;;5.10;1.95;;;;;;;17.51;90.40;101187.00;6236542;28;20410;-88
2022/06/12 00:39:11;;;;;;;4.95;2.28;;;;;;;17.54;90.13;101184.91;6242049;28;20050;-88
2022/06/12 00:42:35;;;;;;;7.38;2.53;;;;;;;17.47;89.86;101188.28;6254914;28;20045;-88
2022/06/12 00:45:59;;;;;;;5.63;2.75;;;;;;;17.41;93.42;101189.69;6234672;28;20108;-88
2022/06/12 00:49:08;;;;;;;8.20;2.08;;;;;;;17.43;90.69;101188.56;6260948;28;20057;-88
2022/06/12 00:52:42;;;;;;;4.85;2.15;;;;;;;17.54;88.07;101182.31;6247015;28;20131;-88
2022/06/12 00:55:58;;;;;;;5.78;3.00;;;;;;;17.39;90.75;101184.63;6257378;28;20060;-88
2022/06/12 00:59:10;;;;;;;8.55;2.20;;;;;;;17.30;92.14;101200.41;6260369;28;20486;-88
2022/06/12 01:02:16;;;;;;;10.25;2.63;;;;;;;17.38;89.50;101193.44;6263295;28;20476;-88
2022/06/12 01:08:42;;;;;;;7.72;2.50;;;;;;;17.06;93.19;101187.88;6240526;28;20107;-88
2022/06/12 01:11:46;;;;;;;8.45;2.70;;;;;;;16.88;94.33;101186.03;6242036;28;20399;-88
2022/06/12 01:15:00;;;;;;;4.72;2.78;;;;;;;16.73;97.61;101193.53;6242320;28;20075;-88
2022/06/12 01:18:07;;;;;;;8.10;2.88;;;;;;;16.78;94.40;101185.28;6232341;28;20045;-88
2022/06/12 01:21:51;;;;;;;6.05;2.72;;;;;;;16.62;96.60;101195.50;6243696;28;20041;-88
2022/06/12 01:25:18;;;;;;;5.15;2.40;;;;;;;16.54;97.87;101188.38;6255878;28;20187;-88
2022/06/12 01:28:44;;;;;;;7.22;2.83;;;;;;;16.40;99.60;101186.22;6247429;28;20044;-88
2022/06/12 01:31:54;;;;;;;5.63;3.53;;;;;;;16.33;99.67;101189.41;6253077;28;20760;-88
2022/06/12 01:35:05;;;;;;;7.07;2.90;;;;;;;16.24;100.00;101186.81;6262341;28;20049;-88
2022/06/12 01:38:26;;;;;;;4.65;2.40;;;;;;;16.19;100.00;101191.66;6240901;28;20288;-88
2022/06/12 01:41:28;;;;;;;;;;;;;;;16.11;100.00;101181.91;6252458;28;20046;-88
2022/06/12 01:44:45;;;;;;;6.40;2.65;;;;;;;16.05;100.00;101187.69;6259435;28;19925;-87
2022/06/12 01:48:17;;;;;;;5.35;2.85;;;;;;;16.03;100.00;101182.63;6259334;28;20040;-88
2022/06/12 01:51:35;;;;;;;6.03;2.65;;;;;;;15.97;100.00;101185.78;6222096;28;20042;-88
2022/06/12 01:54:47;;;;;;;6.53;2.67;;;;;;;15.94;100.00;101179.03;6232825;28;20445;-87
2022/06/12 01:58:00;;;;;;;4.85;3.35;;;;;;;15.87;100.00;101192.81;6248149;28;20046;-88
2022/06/12 02:01:11;;;;;;;7.38;3.08;;;;;;;15.80;100.00;101189.09;6248396;28;20048;-88
2022/06/12 02:04:24;;;;;;;8.30;3.10;;;;;;;15.68;100.00;101185.78;6222963;28;20097;-88
2022/06/12 02:07:36;;;;;;;6.05;2.92;;;;;;;15.66;100.00;101183.31;6230311;28;20491;-88
2022/06/12 02:10:57;;;;;;;9.68;3.13;;;;;;;15.60;100.00;101178.66;6236893;28;20041;-88
2022/06/12 02:14:02;;;;;;;7.72;3.13;;;;;;;15.55;100.00;101186.03;6230337;28;20047;-88
2022/06/12 02:17:11;;;;;;;8.05;3.05;;;;;;;15.55;100.00;101186.03;6235680;28;20075;-88
2022/06/12 02:20:18;;;;;;;11.00;3.53;;;;;;;15.55;100.00;101180.84;6225168;28;20057;-88
2022/06/12 02:23:30;;;;;;;5.55;2.78;;;;;;;15.50;100.00;101181.28;6240887;28;20096;-88
2022/06/12 02:26:57;;;;;;;10.15;3.15;;;;;;;15.43;100.00;101180.16;6267404;28;20093;-88
2022/06/12 02:30:09;;;;;;;8.70;3.47;;;;;;;15.34;100.00;101187.97;6264509;28;20052;-88
2022/06/12 02:33:22;;;;;;;8.75;3.15;;;;;;;15.27;100.00;101182.47;6267223;28;20431;-88
2022/06/12 02:36:28;;;;;;;11.38;3.70;;;;;;;15.21;100.00;101167.38;6266592;28;20044;-88
2022/06/12 02:39:38;;;;;;;11.32;3.30;;;;;;;15.20;100.00;101170.94;6228365;28;20117;-88
2022/06/12 02:42:43;;;;;;;5.72;2.90;;;;;;;15.17;100.00;101166.00;6243589;28;20417;-88
2022/06/12 02:45:50;;;;;;;8.15;3.60;;;;;;;15.19;100.00;101180.53;6233337;28;20044;-88
2022/06/12 02:48:53;;;;;;;7.30;3.38;;;;;;;15.18;100.00;101172.84;6259839;28;20051;-88
2022/06/12 02:52:07;;;;;;;8.10;3.30;;;;;;;15.14;100.00;101172.31;6252347;28;20068;-88
2022/06/12 02:55:55;;;;;;;7.57;3.08;;;;;;;15.07;100.00;101169.41;6230462;28;20065;-88
2022/06/12 02:59:10;;;;;;;12.20;3.53;;;;;;;15.07;100.00;101171.19;6236548;28;20070;-88
2022/06/12 03:02:22;;;;;;;7.72;3.50;;;;;;;15.02;100.00;101168.97;6260728;28;20126;-88
2022/06/12 03:05:35;;;;;;;8.15;3.70;;;;;;;14.99;100.00;101168.44;6265894;28;20190;-88
2022/06/12 03:08:42;;;;;;;8.20;3.28;;;;;;;14.98;100.00;101171.97;6243145;28;20087;-88
2022/06/12 03:11:44;;;;;;;6.65;3.25;;;;;;;14.97;100.00;101170.34;6229391;28;20044;-88
2022/06/12 03:14:46;;;;;;;6.22;2.85;;;;;;;14.95;100.00;101172.25;6221349;28;20038;-88
2022/06/12 03:17:48;;;;;;;8.50;3.47;;;;;;;14.91;100.00;101171.72;6222801;28;20141;-88
2022/06/12 03:21:14;;;;;;;12.38;3.15;;;;;;;14.92;100.00;101167.31;6248794;28;20040;-88
2022/06/12 03:24:37;;;;;;;11.60;3.67;;;;;;;14.92;100.00;101168.13;6253212;28;20041;-88
2022/06/12 03:27:58;;;;;;;7.80;3.28;;;;;;;14.91;100.00;101168.28;6250133;28;20525;-88
2022/06/12 03:31:15;;;;;;;11.43;3.50;;;;;;;14.93;100.00;101172.41;6246193;28;20379;-88
2022/06/12 03:34:52;;;;;;;10.82;3.33;;;;;;;14.97;100.00;101172.94;6267052;28;20045;-88
2022/06/12 03:38:19;;;;;;;7.53;3.45;;;;;;;14.97;100.00;101173.78;6206132;28;20567;-88
2022/06/12 03:41:49;;;;;;;8.90;3.47;;;;;;;14.95;100.00;101182.69;6189511;28;20053;-88
2022/06/12 03:45:05;;;;;;;11.32;3.35;;;;;;;14.95;100.00;101185.28;6190514;28;20050;-88
2022/06/12 03:48:22;;;;;;;6.68;2.72;;;;;;;14.95;100.00;101185.28;6189997;28;20062;-88
2022/06/12 03:51:38;;;;;;;9.93;3.70;;;;;;;14.90;100.00;101187.47;6187142;28;20047;-88
2022/06/12 03:54:52;;;;;;;7.03;3.00;;;;;;;14.85;100.00;101188.69;6193714;28;20050;-88
2022/06/12 03:57:57;;;;;;;10.43;3.38;;;;;;;14.84;100.00;101183.63;6189209;28;20069;-88
2022/06/12 04:01:00;;;;;;;9.60;3.58;;;;;;;14.85;100.00;101185.25;6194336;28;20038;-88
2022/06/12 04:04:04;;;;;;;9.38;3.30;;;;;;;14.89;100.00;101185.84;6186660;28;20054;-88
2022/06/12 04:07:09;;;;;;;7.60;3.38;;;;;;;14.93;100.00;101193.25;6194962;28;20050;-88
2022/06/12 04:10:17;;;;;;;7.93;3.10;;;;;;;14.90;100.00;101192.69;6191802;28;20500;-88
2022/06/12 04:13:21;;;;;;;10.95;3.40;;;;;;;14.90;100.00;101195.28;6224505;28;20744;-88
2022/06/12 04:16:35;;;;;;;6.03;3.53;;;;;;;14.86;100.00;101190.34;6237630;28;20045;-88
2022/06/12 04:23:15;;;;;;;12.60;3.88;;;;;;;14.84;100.00;101194.88;6222708;28;20054;-88
2022/06/12 04:26:30;;;;;;;9.52;3.50;;;;;;;14.88;100.00;101187.63;6225486;28;20072;-88
2022/06/12 04:29:37;;;;;;;8.68;3.63;;;;;;;14.93;100.00;101182.00;6222646;28;20121;-88
2022/06/12 04:32:39;;;;;;;7.25;3.80;;;;;;;14.98;100.00;101198.06;6254705;28;20519;-88
2022/06/12 04:35:48;;;;;;;11.18;3.88;;;;;;;15.00;100.00;101190.94;6261148;28;20037;-88
2022/06/12 04:38:53;;;;;;;9.70;3.85;;;;;;;15.04;100.00;101187.09;6218690;28;20484;-88
2022/06/12 04:41:58;;;;;;;7.90;3.45;;;;;;;15.06;100.00;101188.63;6251805;28;20053;-88
2022/06/12 04:45:05;;;;;;;9.20;3.90;;;;;;;15.11;100.00;101190.84;6228278;28;20193;-88
2022/06/12 04:48:13;;;;;;;6.93;3.35;;;;;;;15.16;100.00;101186.03;6249399;28;20053;-88
2022/06/12 04:51:16;;;;;;;10.52;3.72;;;;;;;15.17;100.00;101187.66;6243599;28;20462;-88
2022/06/12 04:54:19;;;;;;;6.15;3.35;;;;;;;15.17;100.00;101176.41;6246493;28;20139;-88
2022/06/12 04:57:23;;;;;;;9.18;3.97;;;;;;;15.19;100.00;101177.13;6252896;28;20041;-88
2022/06/12 05:00:25;;;;;;;9.60;3.40;;;;;;;15.20;100.00;101174.34;6245949;28;20048;-88
2022/06/12 05:03:28;;;;;;;6.70;3.47;;;;;;;15.31;100.00;101177.81;6265289;28;20049;-88
2022/06/12 05:06:30;;;;;;;8.98;3.55;;;;;;;15.39;100.00;101172.75;6219634;28;20052;-88
2022/06/12 05:09:35;;;;;;;8.63;3.25;;;;;;;15.44;100.00;101173.97;6227083;28;20521;-88
2022/06/12 05:12:37;;;;;;;9.77;3.67;;;;;;;15.47;100.00;101172.88;6220740;28;20434;-88
2022/06/12 05:15:39;;;;;;;10.00;3.30;;;;;;;15.49;100.00;101165.75;6233643;28;20037;-88
2022/06/12 05:18:41;;;;;;;8.13;3.47;;;;;;;15.48;100.00;101161.50;6226674;28;20038;-88
2022/06/12 05:21:43;;;;;;;10.23;3.30;;;;;;;15.54;100.00;101166.16;6223653;28;20491;-88
2022/06/12 05:24:45;;;;;;;11.02;3.35;;;;;;;15.56;100.00;101164.22;6236421;28;20049;-88
2022/06/12 05:27:48;;;;;;;11.48;3.50;;;;;;;15.65;100.00;101170.38;6214774;28;20407;-88
2022/06/12 05:30:50;;;;;;;14.20;3.70;;;;;;;15.73;100.00;101167.16;6241628;28;20403;-88
2022/06/12 05:33:53;;;;;;;10.77;3.90;;;;;;;15.77;100.00;101173.72;6244845;28;20056;-88
2022/06/12 05:36:56;;;;;;;8.63;3.88;;;;;;;15.85;100.00;101174.69;6242828;28;20056;-88
2022/06/12 05:39:58;;;;;;;7.07;3.22;;;;;;;15.88;100.00;101171.78;6229728;28;20045;-88
2022/06/12 05:43:04;;;;;;;13.05;5.13;;;;;;;15.98;100.00;101176.19;6213309;28;20160;-88
2022/06/12 05:46:09;;;;;;;11.65;4.03;;;;;;;16.03;100.00;101177.41;6215074;28;20041;-88
2022/06/12 05:49:12;;;;;;;8.93;3.42;;;;;;;16.07;100.00;101165.72;6238815;28;20048;-88
2022/06/12 05:52:16;;;;;;;10.93;3.53;;;;;;;16.13;100.00;101165.13;6262810;28;20053;-88
2022/06/12 05:55:18;;;;;;;11.38;3.55;;;;;;;16.20;100.00;101170.63;6248998;28;20293;-88
2022/06/12 05:58:25;;;;;;;8.18;3.63;;;;;;;16.29;100.00;101177.59;6251680;28;20518;-88
2022/06/12 06:01:28;;;;;;;10.95;4.10;;;;;;;16.37;100.00;101182.09;6249284;28;20041;-88
2022/06/12 06:04:29;;;;;;;9.68;3.63;;;;;;;16.43;100.00;101181.53;6233878;28;20045;-88
2022/06/12 06:07:32;;;;;;;12.10;4.07;;;;;;;16.48;100.00;101184.56;6217965;28;20049;-88
2022/06/12 06:10:35;;;;;;;14.45;3.80;;;;;;;16.55;100.00;101180.41;6218727;28;20038;-88
2022/06/12 06:13:37;;;;;;;10.32;3.60;;;;;;;16.65;100.00;101179.53;6218237;28;20073;-88
2022/06/12 06:16:40;;;;;;;10.77;3.70;;;;;;;16.71;100.00;101185.00;6217060;28;20746;-88
2022/06/12 06:19:43;;;;;;;7.40;3.42;;;;;;;16.77;100.00;101188.84;6216909;28;20042;-88
2022/06/12 06:22:50;;;;;;;11.52;3.40;;;;;;;16.83;100.00;101190.06;6227572;28;20052;-88
2022/06/12 06:25:52;;;;;;;10.20;3.30;;;;;;;16.87;100.00;101189.63;6237640;28;20132;-88
2022/06/12 06:28:57;;;;;;;9.82;3.88;;;;;;;16.98;100.00;101186.00;6237629;28;20311;-88
2022/06/12 06:31:59;;;;;;;7.40;2.88;;;;;;;17.04;100.00;101188.00;6229694;28;20045;-88
2022/06/12 06:35:04;;;;;;;11.65;3.20;;;;;;;17.14;100.00;101191.41;6233464;28;20049;-88
2022/06/12 06:38:06;;;;;;;11.73;3.85;;;;;;;17.21;100.00;101191.63;6227562;28;20046;-88
2022/06/12 06:41:09;;;;;;;12.32;3.67;;;;;;;17.28;100.00;101197.91;6266586;28;20075;-89
2022/06/12 06:47:32;;;;;;;9.93;3.08;;;;;;;17.53;97.06;101185.06;6225671;28;20053;-88
2022/06/12 06:50:34;;;;;;;10.52;2.92;;;;;;;17.47;96.44;101183.88;6245693;28;20122;-88
2022/06/12 06:53:36;;;;;;;10.35;3.58;;;;;;;17.72;98.03;101181.47;6234882;28;20080;-88
2022/06/12 06:56:38;;;;;;;6.43;2.60;;;;;;;17.65;99.36;101183.84;6252058;28;20418;-89
2022/06/12 06:59:40;;;;;;;9.05;2.90;;;;;;;17.63;96.61;101180.56;6247992;28;20037;-88
2022/06/12 07:02:42;;;;;;;9.02;3.15;;;;;;;17.85;91.73;101193.19;6247371;28;20049;-89
2022/06/12 07:05:46;;;;;;;7.57;2.53;;;;;;;17.98;88.88;101184.94;6237495;28;20056;-89
2022/06/12 07:08:48;;;;;;;13.38;3.03;;;;;;;18.01;90.06;101181.19;6253160;28;20065;-88
2022/06/12 07:11:50;;;;;;;7.72;2.40;;;;;;;18.10;86.74;101182.09;6249579;28;20045;-88
2022/06/12 07:14:52;;;;;;;6.97;2.50;;;;;;;18.17;86.81;101186.53;6244680;28;20056;-88
2022/06/12 07:17:54;;;;;;;10.15;2.88;;;;;;;18.26;87.45;101183.00;6239901;28;20151;-88
2022/06/12 07:21:01;;;;;;;10.95;2.40;;;;;;;18.18;85.70;101182.94;6253419;28;20045;-89
2022/06/12 07:24:05;;;;;;;6.38;2.40;;;;;;;18.19;82.00;101189.03;6253425;28;20044;-89
2022/06/12 07:27:07;;;;;;;9.85;1.92;;;;;;;18.19;78.60;101187.22;6248492;28;20064;-89
2022/06/12 07:30:13;;;;;;;6.15;3.22;;;;;;;18.15;79.20;101185.88;6238639;28;20038;-89
2022/06/12 07:33:16;;;;;;;7.93;1.90;;;;;;;18.18;77.65;101182.94;6255450;28;20150;-89
2022/06/12 07:36:19;;;;;;;8.23;2.03;;;;;;;18.36;78.54;101185.53;6242409;28;20541;-88
2022/06/12 07:39:30;;;;;;;6.32;1.77;;;;;;;18.39;70.44;101192.25;6234660;28;20048;-89
2022/06/12 07:42:33;;;;;;;4.93;1.55;;;;;;;18.59;73.42;101198.09;6238655;28;20061;-89
2022/06/12 07:45:37;;;;;;;6.40;1.70;;;;;;;18.61;67.88;101188.25;6236268;28;20072;-89
2022/06/12 07:48:40;;;;;;;10.57;2.78;;;;;;;18.71;74.08;101191.56;6247954;28;20107;-89
2022/06/12 07:51:43;;;;;;;4.72;1.77;;;;;;;18.74;73.37;101183.38;6258524;28;20045;-89
2022/06/12 07:54:45;;;;;;;6.95;2.05;;;;;;;18.73;72.54;101198.31;6272044;28;20045;-89
2022/06/12 07:57:47;;;;;;;5.50;1.80;;;;;;;18.81;72.35;101187.06;6255333;28;20057;-89
2022/06/12 08:00:59;;;;;;;5.10;1.85;;;;;;;18.94;70.76;101190.03;6245273;28;20114;-89
2022/06/12 08:04:01;;;;;;;5.60;1.90;;;;;;;19.08;64.77;101199.09;6230620;28;20559;-88
2022/06/12 08:07:04;;;;;;;6.10;1.30;;;;;;;19.01;61.52;101198.09;6242489;28;20063;-89
2022/06/12 08:10:07;;;;;;;4.72;1.60;;;;;;;18.99;63.28;101196.63;6220533;28;20362;-89
2022/06/12 08:13:16;;;;;;;4.63;1.50;;;;;;;19.07;64.14;101197.44;6219230;28;20435;-90
2022/06/12 08:16:20;;;;;;;4.80;1.40;;;;;;;19.09;63.64;101202.53;6219128;28;20038;-89
2022/06/12 08:22:43;;;;;;;4.65;1.38;;;;;;;19.25;60.88;101202.56;6218144;28;20049;-89
2022/06/12 08:25:44;;;;;;;4.78;1.58;;;;;;;19.38;58.15;101207.38;6247915;28;20521;-89
2022/06/12 08:28:56;;;;;;;5.13;1.35;;;;;;;19.43;58.38;101210.31;6258214;28;20140;-89
2022/06/12 08:32:04;;;;;;;3.67;1.15;;;;;;;19.44;59.05;101208.50;6257313;28;20044;-89
2022/06/12 08:35:12;;;;;;;5.80;1.17;;;;;;;19.48;59.06;101205.41;6241160;28;20486;-88
2022/06/12 08:38:15;;;;;;;4.50;1.30;;;;;;;19.58;58.73;101203.44;6259743;28;20045;-89
2022/06/12 08:41:25;;;;;;;4.95;1.50;;;;;;;19.70;60.15;101211.00;6239926;28;20532;-89
2022/06/12 08:44:49;;;;;;;3.78;1.40;;;;;;;19.87;58.61;101203.94;6261799;28;20134;-89
2022/06/12 08:47:59;;;;;;;7.07;1.67;;;;;;;20.00;59.10;101205.09;6240358;28;20048;-89
2022/06/12 08:51:09;;;;;;;5.90;2.10;;;;;;;20.05;59.15;101203.75;6262133;28;20045;-89
2022/06/12 08:54:23;;;;;;;7.22;1.65;;;;;;;20.13;57.30;101207.22;6251269;28;20083;-89
2022/06/12 08:57:34;;;;;;;5.53;2.00;;;;;;;20.06;59.79;101198.34;6258080;28;20620;-89
2022/06/12 09:00:38;;;;;;;4.93;1.83;;;;;;;20.23;57.45;101199.97;6256883;28;20041;-88
2022/06/12 09:03:45;;;;;;;7.13;1.90;;;;;;;20.35;57.94;101195.16;6261380;28;20068;-89
2022/06/12 09:06:49;;;;;;;5.38;1.52;;;;;;;20.34;57.28;101177.72;6249703;28;20060;-88
2022/06/12 09:09:58;;;;;;;6.32;1.83;;;;;;;20.38;57.33;101181.69;6251411;28;20045;-89
2022/06/12 09:13:26;;;;;;;3.50;1.80;;;;;;;20.65;57.28;101183.09;6256812;28;20048;-88
2022/06/12 09:17:13;;;;;;;3.55;1.50;;;;;;;20.75;57.38;101179.44;6251143;28;20052;-89
2022/06/12 09:20:52;;;;;;;3.35;1.60;;;;;;;20.88;54.59;101187.59;6195799;28;20061;-89
2022/06/12 09:24:46;;;;;;;6.93;1.60;;;;;;;20.76;56.39;101181.88;6187631;28;20526;-89
2022/06/12 09:27:56;;;;;;;6.97;1.85;;;;;;;20.48;55.98;101175.41;6034964;29;20531;-89
2022/06/12 09:31:12;;;;;;;6.55;1.67;;;;;;;20.26;59.30;101174.31;6026086;29;20712;-90
2022/06/12 09:34:30;;;;;;;8.57;2.03;;;;;;;20.33;60.55;101173.47;6022050;29;20471;-89
2022/06/12 09:41:20;;;;;;;7.63;2.03;;;;;;;21.32;55.21;101180.91;6012038;29;20049;-89
2022/06/12 09:44:39;;;;;;;3.88;1.90;;;;;;;21.83;54.36;101171.44;6023076;29;20058;-90
2022/06/12 09:47:54;;;;;;;4.63;1.77;;;;;;;22.20;52.59;101158.41;6011334;29;20203;-89
2022/06/12 09:51:26;;;;;;;6.03;2.72;;;;;;;22.55;50.29;101162.91;6022198;29;20095;-89
2022/06/12 09:54:55;;;;;;;4.60;1.88;;;;;;;22.50;49.50;101172.41;6023392;29;20057;-89
2022/06/12 09:58:09;;;;;;;9.32;2.15;;;;;;;22.22;51.18;101156.41;6050121;29;20514;-89
2022/06/12 10:01:24;;;;;;;5.32;2.47;;;;;;;22.14;53.50;101166.03;6076056;29;20051;-88
2022/06/12 10:04:44;;;;;;;4.13;1.65;;;;;;;22.04;49.57;101154.13;6188151;28;20445;-89
2022/06/12 10:07:52;;;;;;;5.40;2.03;;;;;;;21.80;52.28;101148.06;6253009;28;20077;-89
2022/06/12 10:11:42;;;;;;;5.43;2.17;;;;;;;21.72;51.89;101143.72;6238298;28;20052;-89
2022/06/12 10:15:27;;;;;;;9.05;2.00;;;;;;;21.61;53.33;101141.50;6175903;28;20085;-89
2022/06/12 10:18:38;;;;;;;4.38;1.95;;;;;;;21.89;51.10;101136.47;6124214;29;20051;-89
2022/06/12 10:21:42;;;;;;;4.60;1.75;;;;;;;22.30;47.41;101130.75;6133837;28;20043;-90
2022/06/12 10:24:45;;;;;;;3.42;1.70;;;;;;;22.53;50.63;101130.66;6116286;29;20717;-89
2022/06/12 10:27:54;;;;;;;5.50;1.80;;;;;;;22.54;46.73;101124.34;6116032;29;20056;-89
2022/06/12 10:31:20;;;;;;;5.82;1.83;;;;;;;22.66;46.19;101129.13;6118538;29;20107;-89
2022/06/12 10:34:28;;;;;;;4.47;1.50;;;;;;;22.82;48.29;101128.09;6130243;29;20525;-89
2022/06/12 10:37:30;;;;;;;5.00;1.73;;;;;;;22.86;46.87;101113.53;6093711;29;20489;-89
2022/06/12 10:40:33;;;;;;;4.47;1.75;;;;;;;22.71;46.32;101116.22;6124312;28;20049;-90
2022/06/12 10:43:43;;;;;;;5.28;2.17;;;;;;;22.45;45.66;101109.63;6127730;29;20055;-89
2022/06/12 10:46:45;;;;;;;5.65;1.73;;;;;;;22.64;47.42;101104.78;6190420;28;20062;-89
2022/06/12 10:50:05;;;;;;;4.65;1.40;;;;;;;22.85;48.15;101096.03;6186441;28;20066;-89
2022/06/12 10:53:20;;;;;;;5.10;1.55;;;;;;;23.26;44.06;101098.91;6241008;28;20053;-89
2022/06/12 10:57:01;;;;;;;5.72;1.65;;;;;;;23.67;42.06;101097.34;6242179;28;20380;-89
2022/06/12 11:00:05;;;;;;;4.93;1.55;;;;;;;23.52;42.16;101106.19;6241200;28;20042;-89
2022/06/12 11:03:39;;;;;;;3.53;1.50;;;;;;;23.22;43.71;101092.34;6255687;28;20336;-89
2022/06/12 11:06:58;;;;;;;5.30;1.88;;;;;;;23.61;43.52;101101.59;6245332;28;20064;-89
2022/06/12 11:09:59;;;;;;;5.68;1.70;;;;;;;24.01;42.37;101100.03;6254914;28;20645;-89
2022/06/12 11:13:13;;;;;;;5.38;1.58;;;;;;;24.39;39.39;101090.81;6248160;28;20029;-89
2022/06/12 11:16:41;;;;;;;2.00;1.33;;;;;;;24.72;38.23;101088.31;6258497;28;20177;-89
2022/06/12 11:20:05;;;;;;;4.65;1.42;;;;;;;24.87;37.50;101082.84;6245470;28;20052;-88
2022/06/12 11:23:45;;;;;;;5.65;1.77;;;;;;;25.29;39.09;101078.16;6258792;28;20076;-89
2022/06/12 11:27:31;;;;;;;5.07;1.70;;;;;;;25.05;40.13;101077.75;6249709;28;20052;-89
2022/06/12 11:30:46;;;;;;;4.72;1.75;;;;;;;25.11;39.91;101082.22;6255362;28;20044;-89
2022/06/12 11:33:57;;;;;;;4.93;1.38;;;;;;;24.86;38.29;101067.94;6257016;28;20071;-89
2022/06/12 11:37:13;;;;;;;5.30;1.58;;;;;;;25.04;39.17;101070.84;6251720;28;20404;-89
2022/06/12 11:40:40;;;;;;;8.35;1.73;;;;;;;24.92;39.17;101075.09;6245652;28;20046;-88
2022/06/12 11:44:06;;;;;;;4.63;1.65;;;;;;;25.02;39.02;101067.56;6233576;28;20503;-88
2022/06/12 11:47:45;;;;;;;5.22;1.80;;;;;;;24.85;39.99;101069.78;6216299;28;20045;-88
2022/06/12 11:51:26;;;;;;;6.07;1.65;;;;;;;24.69;39.26;101071.00;6243626;28;20044;-90
2022/06/12 11:54:42;;;;;;;5.22;1.30;;;;;;;24.54;39.34;101075.63;6219976;28;20133;-89
2022/06/12 11:58:27;;;;;;;2.97;1.30;;;;;;;24.44;38.24;101064.56;6219071;28;20045;-90
2022/06/12 12:01:41;;;;;;;5.75;1.48;;;;;;;24.46;39.19;101071.34;6250032;28;20566;-90
2022/06/12 12:04:46;;;;;;;5.05;1.45;;;;;;;24.85;37.83;101056.53;6219637;28;20050;-89
2022/06/12 12:08:16;;;;;;;4.35;1.30;;;;;;;24.81;39.01;101060.59;6239207;28;20076;-89
2022/06/12 12:11:43;;;;;;;4.13;1.48;;;;;;;24.93;38.08;101066.13;6228599;28;20056;-89
2022/06/12 12:14:47;;;;;;;2.67;1.02;;;;;;;24.82;37.34;101072.00;6240851;28;20053;-89
2022/06/12 12:17:52;;;;;;;4.80;1.48;;;;;;;25.13;36.30;101071.44;6262946;28;20056;-90
2022/06/12 12:20:56;;;;;;;2.50;1.27;;;;;;;25.43;36.32;101055.13;6250008;28;20171;-90
2022/06/12 12:24:00;;;;;;;4.45;1.30;;;;;;;25.80;34.88;101053.63;6241300;28;20134;-90
2022/06/12 12:27:08;;;;;;;3.08;1.00;;;;;;;25.77;34.43;101051.38;6236191;28;20042;-89
2022/06/12 12:30:26;;;;;;;3.63;0.80;;;;;;;25.78;35.59;101051.16;6235939;28;20042;-89
2022/06/12 12:33:28;;;;;;;2.20;0.93;;;;;;;26.25;34.78;101051.00;6243835;28;20806;-89
2022/06/12 12:43:20;;;;;;;6.82;1.27;;;;;;;26.50;35.29;101044.94;6236813;28;20046;-90
2022/06/12 12:46:25;;;;;;;2.38;1.20;;;;;;;26.72;34.18;101051.56;6234784;28;20038;-89
2022/06/12 12:49:35;;;;;;;3.03;1.15;;;;;;;26.23;34.80;101046.94;6261040;28;20195;-89
2022/06/12 12:52:46;;;;;;;;;;;;;;;25.66;34.50;101047.53;6260387;28;20060;-89
2022/06/12 12:55:59;;;;;;;6.63;1.15;;;;;;;25.82;34.39;101029.56;6240067;28;19920;-90
2022/06/12 12:59:07;;;;;;;4.00;1.02;;;;;;;26.14;34.56;101033.91;6235198;28;20410;-90
2022/06/12 13:02:31;;;;;;;3.53;1.05;;;;;;;26.68;31.33;101038.94;6256123;28;20037;-90
2022/06/12 13:05:54;;;;;;;2.90;0.95;;;;;;;26.76;33.40;101036.84;6262559;28;20049;-89
2022/06/12 13:09:22;;;;;;;3.20;1.20;;;;;;;26.66;33.04;101041.00;6243280;28;20067;-88
2022/06/12 13:12:43;;;;;;;3.03;1.10;;;;;;;26.11;34.69;101037.00;6232310;28;20728;-88
2022/06/12 13:15:54;;;;;;;4.43;1.30;;;;;;;26.57;32.72;101033.28;6233523;28;20049;-88
2022/06/12 13:19:17;;;;;;;3.28;1.10;;;;;;;26.71;32.60;101042.00;6241731;28;20681;-90
2022/06/12 13:22:31;;;;;;;2.03;1.00;;;;;;;26.85;32.42;101032.06;6243223;28;20334;-90
2022/06/12 13:25:39;;;;;;;3.65;0.93;;;;;;;26.92;33.76;101026.69;6242080;28;20033;-89
2022/06/12 13:28:42;;;;;;;6.53;1.10;;;;;;;26.98;33.21;101029.31;6237769;28;20055;-88
2022/06/12 13:31:54;;;;;;;3.53;0.80;;;;;;;27.07;31.43;101012.03;6253705;28;20049;-89
2022/06/12 13:34:57;;;;;;;4.65;1.00;;;;;;;26.99;32.69;101014.19;6221113;28;20045;-87
2022/06/12 13:38:06;;;;;;;3.58;1.00;;;;;;;27.10;33.27;101010.78;6229997;28;20140;-89
2022/06/12 13:41:42;;;;;;;4.45;1.23;;;;;;;27.26;33.40;101001.47;6230036;28;20590;-90
2022/06/12 13:44:47;;;;;;;3.00;1.00;;;;;;;27.51;33.07;101011.25;6221867;28;20057;-90
2022/06/12 13:47:49;;;;;;;4.28;0.90;;;;;;;27.48;30.70;101007.19;6217657;28;20108;-90
2022/06/12 13:51:26;;;;;;;3.05;1.15;;;;;;;27.14;32.04;101012.00;6227243;28;20041;-90
2022/06/12 13:54:29;;;;;;;3.28;1.20;;;;;;;27.23;32.19;100991.28;6232178;28;20037;-89
2022/06/12 13:57:38;;;;;;;2.33;0.70;;;;;;;27.50;30.31;101010.41;6231580;28;20053;-89
2022/06/12 14:00:51;;;;;;;2.53;0.80;;;;;;;27.82;29.48;101003.09;6244243;28;20518;-89
2022/06/12 14:03:54;;;;;;;2.08;0.90;;;;;;;27.88;29.39;100994.25;6237416;28;20048;-90
2022/06/12 14:07:00;;;;;;;5.13;1.23;;;;;;;27.87;28.67;100997.94;6246375;28;20495;-90
2022/06/12 14:10:13;;;;;;;2.00;0.70;;;;;;;27.94;29.74;101000.50;6239588;28;20506;-88
2022/06/12 14:13:28;;;;;;;1.88;0.70;;;;;;;28.00;29.03;100990.81;6246757;28;20409;-89
2022/06/12 14:16:30;;;;;;;2.30;1.10;;;;;;;28.12;29.14;100997.81;6217734;28;20046;-89
2022/06/12 14:19:33;;;;;;;1.67;0.85;;;;;;;28.14;29.94;100982.41;6217685;28;20459;-90
2022/06/12 14:22:49;;;;;;;4.88;1.20;;;;;;;28.22;27.56;100985.78;6232316;28;20368;-90
2022/06/12 14:25:58;;;;;;;2.75;1.05;;;;;;;28.43;28.19;100971.97;6228146;28;20116;-89
2022/06/12 14:29:01;;;;;;;3.08;1.05;;;;;;;28.43;28.58;100981.81;6215455;28;20083;-89
2022/06/12 14:32:26;;;;;;;1.95;0.98;;;;;;;28.62;30.29;100963.91;6252833;28;20037;-89
2022/06/12 14:35:27;;;;;;;3.13;1.00;;;;;;;28.91;28.14;100970.19;6263307;28;20041;-90
2022/06/12 14:38:32;;;;;;;4.00;0.98;;;;;;;29.06;29.03;100965.22;6246687;28;20056;-90
2022/06/12 14:41:35;;;;;;;4.53;1.15;;;;;;;29.20;26.06;100960.47;6225931;28;20049;-90
2022/06/12 14:44:38;;;;;;;2.75;1.00;;;;;;;28.99;30.30;100943.16;6231515;28;20053;-91
2022/06/12 14:47:40;;;;;;;3.03;1.10;;;;;;;29.10;27.05;100945.06;6238153;28;20045;-91
2022/06/12 14:50:43;;;;;;;2.85;1.10;;;;;;;28.95;28.91;100939.38;6225979;28;20279;-92
2022/06/12 14:53:45;;;;;;;2.45;0.82;;;;;;;28.92;27.21;100937.16;6242255;28;20220;-91
2022/06/12 14:56:49;;;;;;;3.45;1.10;;;;;;;28.58;29.40;100944.91;6240594;28;20049;-91
2022/06/12 14:59:52;;;;;;;3.45;0.95;;;;;;;28.75;29.61;100935.19;6205702;28;20418;-92
2022/06/12 15:02:54;;;;;;;3.17;0.93;;;;;;;29.01;29.17;100934.94;6262394;28;20048;-92
2022/06/12 15:06:00;;;;;;;3.88;1.10;;;;;;;29.05;28.52;100931.59;6227133;28;20041;-91
2022/06/12 15:09:03;;;;;;;2.80;1.13;;;;;;;29.23;28.55;100932.50;6229877;28;20044;-91